sensor_id;sensor_type;location;lat;lon;timestamp;P1;durP1;ratioP1;P2;durP2;ratioP2
7523;SDS011;3803;51.666;7.630;2023-07-20T00:00:02;13.48;;;9.90;;
7523;SDS011;3803;51.666;7.630;2023-07-20T00:00:33;14.38;;;10.00;;
7523;SDS011;3803;51.666;7.630;2023-07-20T00:00:54;13.80;;;9.67;;
7523;SDS011;3803;51.666;7.630;2023-07-20T00:01:14;12.30;;;9.23;;
7523;SDS011;3803;51.666;7.630;2023-07-20T00:01:35;12.13;;;8.70;;
7523;SDS011;3803;51.666;7.630;2023-07-20T00:01:56;11.18;;;8.70;;
7523;SDS011;3803;51.666;7.630;2023-07-20T00:02:17;11.93;;;9.17;;
7523;SDS011;3803;51.666;7.630;2023-07-20T00:02:37;13.88;;;9.40;;
7523;SDS011;3803;51.666;7.630;2023-07-20T00:03:14;14.20;;;9.43;;
7523;SDS011;3803;51.666;7.630;2023-07-20T00:03:39;11.95;;;9.70;;
7523;SDS011;3803;51.666;7.630;2023-07-20T00:03:59;14.18;;;9.70;;
7523;SDS011;3803;51.666;7.630;2023-07-20T00:04:20;14.63;;;9.43;;
7523;SDS011;3803;51.666;7.630;2023-07-20T00:04:40;13.67;;;9.40;;
7523;SDS011;3803;51.666;7.630;2023-07-20T00:05:01;13.32;;;10.13;;
7523;SDS011;3803;51.666;7.630;2023-07-20T00:05:22;13.88;;;9.98;;
7523;SDS011;3803;51.666;7.630;2023-07-20T00:05:45;13.43;;;9.40;;
7523;SDS011;3803;51.666;7.630;2023-07-20T00:06:12;11.57;;;8.70;;
7523;SDS011;3803;51.666;7.630;2023-07-20T00:06:32;11.18;;;9.10;;
7523;SDS011;3803;51.666;7.630;2023-07-20T00:06:53;11.50;;;9.60;;
7523;SDS011;3803;51.666;7.630;2023-07-20T00:07:15;12.00;;;9.70;;
7523;SDS011;3803;51.666;7.630;2023-07-20T00:07:35;11.73;;;9.40;;
7523;SDS011;3803;51.666;7.630;2023-07-20T00:07:56;11.52;;;9.10;;
7523;SDS011;3803;51.666;7.630;2023-07-20T00:08:17;10.75;;;9.10;;
7523;SDS011;3803;51.666;7.630;2023-07-20T00:08:38;10.35;;;9.20;;
7523;SDS011;3803;51.666;7.630;2023-07-20T00:08:59;10.40;;;9.20;;
7523;SDS011;3803;51.666;7.630;2023-07-20T00:09:20;10.77;;;9.20;;
7523;SDS011;3803;51.666;7.630;2023-07-20T00:09:41;11.13;;;9.45;;
7523;SDS011;3803;51.666;7.630;2023-07-20T00:10:02;13.10;;;10.03;;
7523;SDS011;3803;51.666;7.630;2023-07-20T00:10:23;13.60;;;10.10;;
7523;SDS011;3803;51.666;7.630;2023-07-20T00:10:43;15.47;;;10.43;;
7523;SDS011;3803;51.666;7.630;2023-07-20T00:11:04;14.63;;;10.00;;
7523;SDS011;3803;51.666;7.630;2023-07-20T00:11:26;14.48;;;9.93;;
7523;SDS011;3803;51.666;7.630;2023-07-20T00:11:50;12.48;;;9.50;;
7523;SDS011;3803;51.666;7.630;2023-07-20T00:12:12;11.02;;;9.40;;
7523;SDS011;3803;51.666;7.630;2023-07-20T00:12:32;12.73;;;9.60;;
7523;SDS011;3803;51.666;7.630;2023-07-20T00:12:53;12.90;;;9.40;;
7523;SDS011;3803;51.666;7.630;2023-07-20T00:13:14;13.37;;;9.60;;
7523;SDS011;3803;51.666;7.630;2023-07-20T00:13:36;13.05;;;9.68;;
7523;SDS011;3803;51.666;7.630;2023-07-20T00:13:57;13.50;;;9.75;;
7523;SDS011;3803;51.666;7.630;2023-07-20T00:14:17;13.30;;;9.32;;
7523;SDS011;3803;51.666;7.630;2023-07-20T00:14:38;12.65;;;9.30;;
7523;SDS011;3803;51.666;7.630;2023-07-20T00:14:59;12.20;;;9.20;;
7523;SDS011;3803;51.666;7.630;2023-07-20T00:15:20;12.48;;;9.50;;
7523;SDS011;3803;51.666;7.630;2023-07-20T00:15:40;13.50;;;9.40;;
7523;SDS011;3803;51.666;7.630;2023-07-20T00:16:01;13.73;;;9.50;;
7523;SDS011;3803;51.666;7.630;2023-07-20T00:16:22;13.63;;;9.10;;
7523;SDS011;3803;51.666;7.630;2023-07-20T00:16:42;12.60;;;9.00;;
7523;SDS011;3803;51.666;7.630;2023-07-20T00:17:03;14.75;;;8.75;;
7523;SDS011;3803;51.666;7.630;2023-07-20T00:17:24;17.20;;;9.13;;
7523;SDS011;3803;51.666;7.630;2023-07-20T00:17:44;17.03;;;9.03;;
7523;SDS011;3803;51.666;7.630;2023-07-20T00:18:05;14.38;;;9.07;;
7523;SDS011;3803;51.666;7.630;2023-07-20T00:18:26;12.32;;;8.85;;
7523;SDS011;3803;51.666;7.630;2023-07-20T00:18:47;12.30;;;9.03;;
7523;SDS011;3803;51.666;7.630;2023-07-20T00:19:07;10.77;;;8.75;;
7523;SDS011;3803;51.666;7.630;2023-07-20T00:19:28;11.98;;;8.77;;
7523;SDS011;3803;51.666;7.630;2023-07-20T00:19:49;14.38;;;9.38;;
7523;SDS011;3803;51.666;7.630;2023-07-20T00:20:10;16.00;;;9.57;;
7523;SDS011;3803;51.666;7.630;2023-07-20T00:20:31;15.20;;;9.63;;
7523;SDS011;3803;51.666;7.630;2023-07-20T00:20:51;14.70;;;9.23;;
7523;SDS011;3803;51.666;7.630;2023-07-20T00:21:12;13.85;;;9.35;;
7523;SDS011;3803;51.666;7.630;2023-07-20T00:21:32;13.03;;;9.20;;
7523;SDS011;3803;51.666;7.630;2023-07-20T00:21:53;12.13;;;8.70;;
7523;SDS011;3803;51.666;7.630;2023-07-20T00:22:15;12.20;;;8.80;;
7523;SDS011;3803;51.666;7.630;2023-07-20T00:22:35;12.23;;;8.50;;
7523;SDS011;3803;51.666;7.630;2023-07-20T00:22:56;13.90;;;8.80;;
7523;SDS011;3803;51.666;7.630;2023-07-20T00:23:18;14.48;;;8.85;;
7523;SDS011;3803;51.666;7.630;2023-07-20T00:23:41;14.07;;;9.05;;
7523;SDS011;3803;51.666;7.630;2023-07-20T00:24:01;13.17;;;9.40;;
7523;SDS011;3803;51.666;7.630;2023-07-20T00:24:22;13.00;;;9.10;;
7523;SDS011;3803;51.666;7.630;2023-07-20T00:24:44;12.02;;;9.07;;
7523;SDS011;3803;51.666;7.630;2023-07-20T00:25:05;13.55;;;9.00;;
7523;SDS011;3803;51.666;7.630;2023-07-20T00:25:26;13.75;;;9.15;;
7523;SDS011;3803;51.666;7.630;2023-07-20T00:25:47;12.90;;;8.97;;
7523;SDS011;3803;51.666;7.630;2023-07-20T00:26:08;9.98;;;8.43;;
7523;SDS011;3803;51.666;7.630;2023-07-20T00:26:29;10.17;;;8.30;;
7523;SDS011;3803;51.666;7.630;2023-07-20T00:26:50;10.32;;;8.35;;
7523;SDS011;3803;51.666;7.630;2023-07-20T00:27:10;10.63;;;8.65;;
7523;SDS011;3803;51.666;7.630;2023-07-20T00:27:31;12.87;;;9.00;;
7523;SDS011;3803;51.666;7.630;2023-07-20T00:27:52;13.55;;;9.48;;
7523;SDS011;3803;51.666;7.630;2023-07-20T00:28:14;14.63;;;9.30;;
7523;SDS011;3803;51.666;7.630;2023-07-20T00:28:35;13.13;;;8.88;;
7523;SDS011;3803;51.666;7.630;2023-07-20T00:28:56;13.52;;;8.40;;
7523;SDS011;3803;51.666;7.630;2023-07-20T00:29:17;12.10;;;8.60;;
7523;SDS011;3803;51.666;7.630;2023-07-20T00:29:38;13.23;;;8.90;;
7523;SDS011;3803;51.666;7.630;2023-07-20T00:29:58;12.20;;;8.90;;
7523;SDS011;3803;51.666;7.630;2023-07-20T00:30:19;12.20;;;8.70;;
7523;SDS011;3803;51.666;7.630;2023-07-20T00:30:40;10.57;;;8.63;;
7523;SDS011;3803;51.666;7.630;2023-07-20T00:31:00;12.50;;;9.05;;
7523;SDS011;3803;51.666;7.630;2023-07-20T00:31:21;12.90;;;9.13;;
7523;SDS011;3803;51.666;7.630;2023-07-20T00:31:42;14.00;;;9.27;;
7523;SDS011;3803;51.666;7.630;2023-07-20T00:32:03;13.52;;;9.40;;
7523;SDS011;3803;51.666;7.630;2023-07-20T00:32:25;11.63;;;8.80;;
7523;SDS011;3803;51.666;7.630;2023-07-20T00:32:45;10.90;;;8.60;;
7523;SDS011;3803;51.666;7.630;2023-07-20T00:33:10;9.38;;;7.80;;
7523;SDS011;3803;51.666;7.630;2023-07-20T00:33:31;10.73;;;7.90;;
7523;SDS011;3803;51.666;7.630;2023-07-20T00:33:53;12.27;;;8.40;;
7523;SDS011;3803;51.666;7.630;2023-07-20T00:34:13;12.52;;;8.57;;
7523;SDS011;3803;51.666;7.630;2023-07-20T00:34:34;13.10;;;8.50;;
7523;SDS011;3803;51.666;7.630;2023-07-20T00:34:55;12.02;;;8.38;;
7523;SDS011;3803;51.666;7.630;2023-07-20T00:35:15;12.80;;;8.50;;
7523;SDS011;3803;51.666;7.630;2023-07-20T00:35:37;12.20;;;8.65;;
7523;SDS011;3803;51.666;7.630;2023-07-20T00:36:00;11.93;;;8.52;;
7523;SDS011;3803;51.666;7.630;2023-07-20T00:36:21;10.95;;;8.45;;
7523;SDS011;3803;51.666;7.630;2023-07-20T00:36:42;10.98;;;8.55;;
7523;SDS011;3803;51.666;7.630;2023-07-20T00:37:03;14.20;;;8.70;;
7523;SDS011;3803;51.666;7.630;2023-07-20T00:37:24;14.13;;;8.80;;
7523;SDS011;3803;51.666;7.630;2023-07-20T00:37:44;13.97;;;8.90;;
7523;SDS011;3803;51.666;7.630;2023-07-20T00:38:05;11.35;;;8.80;;
7523;SDS011;3803;51.666;7.630;2023-07-20T00:38:26;12.73;;;8.95;;
7523;SDS011;3803;51.666;7.630;2023-07-20T00:38:46;13.40;;;9.15;;
7523;SDS011;3803;51.666;7.630;2023-07-20T00:39:07;14.70;;;9.10;;
7523;SDS011;3803;51.666;7.630;2023-07-20T00:39:28;13.20;;;9.00;;
7523;SDS011;3803;51.666;7.630;2023-07-20T00:39:49;13.27;;;8.97;;
7523;SDS011;3803;51.666;7.630;2023-07-20T00:40:12;13.75;;;9.25;;
7523;SDS011;3803;51.666;7.630;2023-07-20T00:40:36;15.63;;;9.25;;
7523;SDS011;3803;51.666;7.630;2023-07-20T00:41:00;14.85;;;9.30;;
7523;SDS011;3803;51.666;7.630;2023-07-20T00:41:21;14.52;;;9.00;;
7523;SDS011;3803;51.666;7.630;2023-07-20T00:41:42;14.07;;;9.18;;
7523;SDS011;3803;51.666;7.630;2023-07-20T00:42:02;16.17;;;9.20;;
7523;SDS011;3803;51.666;7.630;2023-07-20T00:42:23;16.80;;;9.23;;
7523;SDS011;3803;51.666;7.630;2023-07-20T00:42:45;14.95;;;9.05;;
7523;SDS011;3803;51.666;7.630;2023-07-20T00:43:06;12.55;;;9.07;;
7523;SDS011;3803;51.666;7.630;2023-07-20T00:43:27;10.98;;;8.98;;
7523;SDS011;3803;51.666;7.630;2023-07-20T00:43:47;11.65;;;9.20;;
7523;SDS011;3803;51.666;7.630;2023-07-20T00:44:08;12.40;;;9.40;;
7523;SDS011;3803;51.666;7.630;2023-07-20T00:44:29;13.50;;;9.60;;
7523;SDS011;3803;51.666;7.630;2023-07-20T00:44:49;13.27;;;9.35;;
7523;SDS011;3803;51.666;7.630;2023-07-20T00:45:10;11.93;;;9.50;;
7523;SDS011;3803;51.666;7.630;2023-07-20T00:45:31;10.93;;;9.05;;
7523;SDS011;3803;51.666;7.630;2023-07-20T00:45:53;10.13;;;8.63;;
7523;SDS011;3803;51.666;7.630;2023-07-20T00:46:14;9.77;;;8.00;;
7523;SDS011;3803;51.666;7.630;2023-07-20T00:46:35;9.90;;;8.10;;
7523;SDS011;3803;51.666;7.630;2023-07-20T00:46:56;10.07;;;8.27;;
7523;SDS011;3803;51.666;7.630;2023-07-20T00:47:16;10.45;;;8.60;;
7523;SDS011;3803;51.666;7.630;2023-07-20T00:47:37;12.50;;;8.90;;
7523;SDS011;3803;51.666;7.630;2023-07-20T00:47:58;12.90;;;8.80;;
7523;SDS011;3803;51.666;7.630;2023-07-20T00:48:19;12.98;;;8.77;;
7523;SDS011;3803;51.666;7.630;2023-07-20T00:48:40;11.30;;;8.63;;
7523;SDS011;3803;51.666;7.630;2023-07-20T00:49:03;12.60;;;8.93;;
7523;SDS011;3803;51.666;7.630;2023-07-20T00:49:25;12.93;;;8.93;;
7523;SDS011;3803;51.666;7.630;2023-07-20T00:49:45;14.57;;;9.07;;
7523;SDS011;3803;51.666;7.630;2023-07-20T00:50:06;14.10;;;9.20;;
7523;SDS011;3803;51.666;7.630;2023-07-20T00:50:28;14.02;;;9.30;;
7523;SDS011;3803;51.666;7.630;2023-07-20T00:50:49;11.93;;;9.40;;
7523;SDS011;3803;51.666;7.630;2023-07-20T00:51:10;12.38;;;9.43;;
7523;SDS011;3803;51.666;7.630;2023-07-20T00:51:31;12.15;;;9.50;;
7523;SDS011;3803;51.666;7.630;2023-07-20T00:51:52;12.73;;;9.23;;
7523;SDS011;3803;51.666;7.630;2023-07-20T00:52:13;12.23;;;8.90;;
7523;SDS011;3803;51.666;7.630;2023-07-20T00:52:37;12.55;;;8.85;;
7523;SDS011;3803;51.666;7.630;2023-07-20T00:53:02;11.98;;;8.85;;
7523;SDS011;3803;51.666;7.630;2023-07-20T00:53:27;13.73;;;8.75;;
7523;SDS011;3803;51.666;7.630;2023-07-20T00:53:48;13.00;;;8.55;;
7523;SDS011;3803;51.666;7.630;2023-07-20T00:54:09;12.70;;;8.13;;
7523;SDS011;3803;51.666;7.630;2023-07-20T00:54:30;11.75;;;8.27;;
7523;SDS011;3803;51.666;7.630;2023-07-20T00:54:51;12.07;;;8.73;;
7523;SDS011;3803;51.666;7.630;2023-07-20T00:55:16;13.30;;;8.98;;
7523;SDS011;3803;51.666;7.630;2023-07-20T00:55:39;11.90;;;8.70;;
7523;SDS011;3803;51.666;7.630;2023-07-20T00:56:01;12.60;;;8.50;;
7523;SDS011;3803;51.666;7.630;2023-07-20T00:56:22;14.10;;;8.75;;
7523;SDS011;3803;51.666;7.630;2023-07-20T00:56:43;14.45;;;9.07;;
7523;SDS011;3803;51.666;7.630;2023-07-20T00:57:07;13.55;;;8.90;;
7523;SDS011;3803;51.666;7.630;2023-07-20T00:57:28;13.68;;;9.23;;
7523;SDS011;3803;51.666;7.630;2023-07-20T00:57:48;13.20;;;9.18;;
7523;SDS011;3803;51.666;7.630;2023-07-20T00:58:10;12.60;;;9.20;;
7523;SDS011;3803;51.666;7.630;2023-07-20T00:58:30;12.40;;;9.07;;
7523;SDS011;3803;51.666;7.630;2023-07-20T00:59:00;13.40;;;8.80;;
7523;SDS011;3803;51.666;7.630;2023-07-20T00:59:22;14.00;;;8.80;;
7523;SDS011;3803;51.666;7.630;2023-07-20T00:59:43;12.07;;;9.00;;
7523;SDS011;3803;51.666;7.630;2023-07-20T01:00:04;13.35;;;9.55;;
7523;SDS011;3803;51.666;7.630;2023-07-20T01:00:28;13.82;;;9.50;;
7523;SDS011;3803;51.666;7.630;2023-07-20T01:00:49;14.70;;;9.60;;
7523;SDS011;3803;51.666;7.630;2023-07-20T01:01:10;16.88;;;9.30;;
7523;SDS011;3803;51.666;7.630;2023-07-20T01:01:30;15.93;;;9.20;;
7523;SDS011;3803;51.666;7.630;2023-07-20T01:01:51;17.10;;;8.90;;
7523;SDS011;3803;51.666;7.630;2023-07-20T01:02:12;13.00;;;8.88;;
7523;SDS011;3803;51.666;7.630;2023-07-20T01:02:34;12.40;;;8.90;;
7523;SDS011;3803;51.666;7.630;2023-07-20T01:02:55;11.60;;;9.43;;
7523;SDS011;3803;51.666;7.630;2023-07-20T01:03:16;12.07;;;9.43;;
7523;SDS011;3803;51.666;7.630;2023-07-20T01:03:37;12.68;;;9.48;;
7523;SDS011;3803;51.666;7.630;2023-07-20T01:03:57;12.80;;;9.07;;
7523;SDS011;3803;51.666;7.630;2023-07-20T01:04:18;12.57;;;9.00;;
7523;SDS011;3803;51.666;7.630;2023-07-20T01:04:40;11.25;;;8.75;;
7523;SDS011;3803;51.666;7.630;2023-07-20T01:05:01;10.85;;;8.60;;
7523;SDS011;3803;51.666;7.630;2023-07-20T01:05:22;12.02;;;8.70;;
7523;SDS011;3803;51.666;7.630;2023-07-20T01:07:23;11.10;;;8.02;;
7523;SDS011;3803;51.666;7.630;2023-07-20T01:07:59;12.40;;;8.23;;
7523;SDS011;3803;51.666;7.630;2023-07-20T01:09:34;13.75;;;9.27;;
7523;SDS011;3803;51.666;7.630;2023-07-20T01:10:18;12.52;;;8.88;;
7523;SDS011;3803;51.666;7.630;2023-07-20T01:10:54;12.40;;;8.85;;
7523;SDS011;3803;51.666;7.630;2023-07-20T01:11:32;11.57;;;8.88;;
7523;SDS011;3803;51.666;7.630;2023-07-20T01:12:01;11.77;;;8.43;;
7523;SDS011;3803;51.666;7.630;2023-07-20T01:12:30;12.00;;;8.38;;
7523;SDS011;3803;51.666;7.630;2023-07-20T01:12:58;11.25;;;8.70;;
7523;SDS011;3803;51.666;7.630;2023-07-20T01:13:22;12.30;;;9.15;;
7523;SDS011;3803;51.666;7.630;2023-07-20T01:13:43;12.75;;;9.50;;
7523;SDS011;3803;51.666;7.630;2023-07-20T01:14:04;12.85;;;9.30;;
7523;SDS011;3803;51.666;7.630;2023-07-20T01:14:25;13.38;;;8.90;;
7523;SDS011;3803;51.666;7.630;2023-07-20T01:14:46;13.60;;;8.77;;
7523;SDS011;3803;51.666;7.630;2023-07-20T01:15:07;12.98;;;8.70;;
7523;SDS011;3803;51.666;7.630;2023-07-20T01:15:29;12.75;;;9.00;;
7523;SDS011;3803;51.666;7.630;2023-07-20T01:15:50;11.75;;;8.63;;
7523;SDS011;3803;51.666;7.630;2023-07-20T01:16:13;12.75;;;8.70;;
7523;SDS011;3803;51.666;7.630;2023-07-20T01:16:34;13.83;;;9.00;;
7523;SDS011;3803;51.666;7.630;2023-07-20T01:16:55;13.40;;;9.40;;
7523;SDS011;3803;51.666;7.630;2023-07-20T01:17:15;13.10;;;9.25;;
7523;SDS011;3803;51.666;7.630;2023-07-20T01:17:36;14.07;;;9.00;;
7523;SDS011;3803;51.666;7.630;2023-07-20T01:17:56;13.70;;;8.57;;
7523;SDS011;3803;51.666;7.630;2023-07-20T01:18:17;13.30;;;8.80;;
7523;SDS011;3803;51.666;7.630;2023-07-20T01:18:38;11.95;;;8.93;;
7523;SDS011;3803;51.666;7.630;2023-07-20T01:18:59;15.38;;;9.48;;
7523;SDS011;3803;51.666;7.630;2023-07-20T01:19:20;14.82;;;9.10;;
7523;SDS011;3803;51.666;7.630;2023-07-20T01:19:41;14.38;;;8.90;;
7523;SDS011;3803;51.666;7.630;2023-07-20T01:20:02;12.98;;;8.70;;
7523;SDS011;3803;51.666;7.630;2023-07-20T01:20:23;13.65;;;9.18;;
7523;SDS011;3803;51.666;7.630;2023-07-20T01:20:44;13.10;;;8.88;;
7523;SDS011;3803;51.666;7.630;2023-07-20T01:21:06;12.20;;;9.10;;
7523;SDS011;3803;51.666;7.630;2023-07-20T01:21:32;11.50;;;9.00;;
7523;SDS011;3803;51.666;7.630;2023-07-20T01:22:02;13.40;;;9.48;;
7523;SDS011;3803;51.666;7.630;2023-07-20T01:31:48;13.85;;;9.10;;
7523;SDS011;3803;51.666;7.630;2023-07-20T01:32:13;12.30;;;8.88;;
7523;SDS011;3803;51.666;7.630;2023-07-20T01:32:37;13.32;;;9.20;;
7523;SDS011;3803;51.666;7.630;2023-07-20T01:33:01;14.10;;;9.32;;
7523;SDS011;3803;51.666;7.630;2023-07-20T01:33:22;13.35;;;9.27;;
7523;SDS011;3803;51.666;7.630;2023-07-20T01:33:45;13.43;;;9.00;;
7523;SDS011;3803;51.666;7.630;2023-07-20T01:34:07;13.55;;;9.50;;
7523;SDS011;3803;51.666;7.630;2023-07-20T01:34:32;15.93;;;10.00;;
7523;SDS011;3803;51.666;7.630;2023-07-20T01:34:57;14.85;;;9.52;;
7523;SDS011;3803;51.666;7.630;2023-07-20T01:35:20;17.00;;;9.60;;
7523;SDS011;3803;51.666;7.630;2023-07-20T01:35:43;14.35;;;9.30;;
7523;SDS011;3803;51.666;7.630;2023-07-20T01:36:07;12.05;;;9.10;;
7523;SDS011;3803;51.666;7.630;2023-07-20T01:36:30;11.18;;;9.40;;
7523;SDS011;3803;51.666;7.630;2023-07-20T01:36:54;11.38;;;9.18;;
7523;SDS011;3803;51.666;7.630;2023-07-20T01:37:17;11.65;;;9.18;;
7523;SDS011;3803;51.666;7.630;2023-07-20T01:37:41;11.68;;;9.35;;
7523;SDS011;3803;51.666;7.630;2023-07-20T01:38:04;11.93;;;9.13;;
7523;SDS011;3803;51.666;7.630;2023-07-20T01:38:27;12.90;;;8.90;;
7523;SDS011;3803;51.666;7.630;2023-07-20T01:38:49;11.85;;;8.80;;
7523;SDS011;3803;51.666;7.630;2023-07-20T01:39:10;11.85;;;9.23;;
7523;SDS011;3803;51.666;7.630;2023-07-20T01:39:32;12.93;;;9.85;;
7523;SDS011;3803;51.666;7.630;2023-07-20T01:39:53;12.43;;;9.77;;
7523;SDS011;3803;51.666;7.630;2023-07-20T01:40:17;12.50;;;9.13;;
7523;SDS011;3803;51.666;7.630;2023-07-20T01:40:39;13.38;;;9.45;;
7523;SDS011;3803;51.666;7.630;2023-07-20T01:41:01;14.07;;;9.55;;
7523;SDS011;3803;51.666;7.630;2023-07-20T01:41:22;12.98;;;9.70;;
7523;SDS011;3803;51.666;7.630;2023-07-20T01:41:43;12.60;;;9.40;;
7523;SDS011;3803;51.666;7.630;2023-07-20T01:42:05;12.23;;;9.40;;
7523;SDS011;3803;51.666;7.630;2023-07-20T01:42:26;13.43;;;9.43;;
7523;SDS011;3803;51.666;7.630;2023-07-20T01:42:47;12.85;;;9.15;;
7523;SDS011;3803;51.666;7.630;2023-07-20T01:43:08;11.52;;;9.10;;
7523;SDS011;3803;51.666;7.630;2023-07-20T01:43:30;11.60;;;8.98;;
7523;SDS011;3803;51.666;7.630;2023-07-20T01:43:50;13.93;;;9.65;;
7523;SDS011;3803;51.666;7.630;2023-07-20T01:44:12;16.70;;;9.40;;
7523;SDS011;3803;51.666;7.630;2023-07-20T01:44:33;16.60;;;9.65;;
7523;SDS011;3803;51.666;7.630;2023-07-20T01:44:54;16.55;;;9.30;;
7523;SDS011;3803;51.666;7.630;2023-07-20T01:45:17;15.85;;;9.60;;
7523;SDS011;3803;51.666;7.630;2023-07-20T01:45:38;16.40;;;9.25;;
7523;SDS011;3803;51.666;7.630;2023-07-20T01:45:59;15.13;;;9.60;;
7523;SDS011;3803;51.666;7.630;2023-07-20T01:46:21;12.98;;;9.50;;
7523;SDS011;3803;51.666;7.630;2023-07-20T01:46:42;11.80;;;9.20;;
7523;SDS011;3803;51.666;7.630;2023-07-20T01:47:02;11.60;;;8.85;;
7523;SDS011;3803;51.666;7.630;2023-07-20T01:47:24;10.48;;;8.60;;
7523;SDS011;3803;51.666;7.630;2023-07-20T01:47:44;10.50;;;8.60;;
7523;SDS011;3803;51.666;7.630;2023-07-20T01:48:05;12.75;;;9.10;;
7523;SDS011;3803;51.666;7.630;2023-07-20T01:48:26;12.30;;;9.05;;
7523;SDS011;3803;51.666;7.630;2023-07-20T01:48:47;12.00;;;8.67;;
7523;SDS011;3803;51.666;7.630;2023-07-20T01:49:07;9.98;;;8.07;;
7523;SDS011;3803;51.666;7.630;2023-07-20T01:49:28;11.10;;;8.68;;
7523;SDS011;3803;51.666;7.630;2023-07-20T01:49:48;11.10;;;8.90;;
7523;SDS011;3803;51.666;7.630;2023-07-20T01:50:09;11.35;;;9.10;;
7523;SDS011;3803;51.666;7.630;2023-07-20T01:50:30;10.57;;;8.40;;
7523;SDS011;3803;51.666;7.630;2023-07-20T01:50:52;11.65;;;9.05;;
7523;SDS011;3803;51.666;7.630;2023-07-20T01:51:13;12.35;;;9.48;;
7523;SDS011;3803;51.666;7.630;2023-07-20T01:51:34;12.35;;;9.70;;
7523;SDS011;3803;51.666;7.630;2023-07-20T01:51:55;10.87;;;9.10;;
7523;SDS011;3803;51.666;7.630;2023-07-20T01:52:16;11.70;;;8.52;;
7523;SDS011;3803;51.666;7.630;2023-07-20T01:52:37;11.75;;;8.48;;
7523;SDS011;3803;51.666;7.630;2023-07-20T01:52:57;12.33;;;8.60;;
7523;SDS011;3803;51.666;7.630;2023-07-20T01:53:20;11.50;;;9.07;;
7523;SDS011;3803;51.666;7.630;2023-07-20T01:53:42;12.32;;;9.00;;
7523;SDS011;3803;51.666;7.630;2023-07-20T01:54:02;11.35;;;8.90;;
7523;SDS011;3803;51.666;7.630;2023-07-20T01:54:23;13.10;;;8.83;;
7523;SDS011;3803;51.666;7.630;2023-07-20T01:54:44;13.65;;;9.23;;
7523;SDS011;3803;51.666;7.630;2023-07-20T01:55:04;14.70;;;9.73;;
7523;SDS011;3803;51.666;7.630;2023-07-20T01:55:25;12.23;;;9.82;;
7523;SDS011;3803;51.666;7.630;2023-07-20T01:55:46;12.50;;;9.70;;
7523;SDS011;3803;51.666;7.630;2023-07-20T01:56:07;11.68;;;9.43;;
7523;SDS011;3803;51.666;7.630;2023-07-20T01:56:29;14.60;;;9.50;;
7523;SDS011;3803;51.666;7.630;2023-07-20T01:56:50;14.40;;;9.60;;
7523;SDS011;3803;51.666;7.630;2023-07-20T01:57:11;14.80;;;9.80;;
7523;SDS011;3803;51.666;7.630;2023-07-20T01:57:32;13.93;;;9.75;;
7523;SDS011;3803;51.666;7.630;2023-07-20T01:57:52;13.30;;;9.60;;
7523;SDS011;3803;51.666;7.630;2023-07-20T01:58:13;12.32;;;9.30;;
7523;SDS011;3803;51.666;7.630;2023-07-20T01:58:34;12.80;;;9.35;;
7523;SDS011;3803;51.666;7.630;2023-07-20T01:58:55;15.43;;;9.40;;
7523;SDS011;3803;51.666;7.630;2023-07-20T01:59:16;15.67;;;9.30;;
7523;SDS011;3803;51.666;7.630;2023-07-20T01:59:36;15.07;;;9.23;;
7523;SDS011;3803;51.666;7.630;2023-07-20T01:59:57;14.10;;;9.43;;
7523;SDS011;3803;51.666;7.630;2023-07-20T02:00:18;13.87;;;9.50;;
7523;SDS011;3803;51.666;7.630;2023-07-20T02:00:41;12.80;;;9.20;;
7523;SDS011;3803;51.666;7.630;2023-07-20T02:01:01;12.83;;;9.20;;
7523;SDS011;3803;51.666;7.630;2023-07-20T02:01:23;11.90;;;9.03;;
7523;SDS011;3803;51.666;7.630;2023-07-20T02:01:44;11.70;;;8.98;;
7523;SDS011;3803;51.666;7.630;2023-07-20T02:02:06;10.57;;;8.80;;
7523;SDS011;3803;51.666;7.630;2023-07-20T02:02:27;11.27;;;9.00;;
7523;SDS011;3803;51.666;7.630;2023-07-20T02:02:50;13.93;;;9.48;;
7523;SDS011;3803;51.666;7.630;2023-07-20T02:03:11;13.98;;;9.52;;
7523;SDS011;3803;51.666;7.630;2023-07-20T02:03:32;13.43;;;9.68;;
7523;SDS011;3803;51.666;7.630;2023-07-20T02:03:53;14.05;;;9.82;;
7523;SDS011;3803;51.666;7.630;2023-07-20T02:04:14;14.07;;;9.90;;
7523;SDS011;3803;51.666;7.630;2023-07-20T02:04:35;13.88;;;9.73;;
7523;SDS011;3803;51.666;7.630;2023-07-20T02:04:56;15.00;;;9.65;;
7523;SDS011;3803;51.666;7.630;2023-07-20T02:05:17;15.48;;;9.68;;
7523;SDS011;3803;51.666;7.630;2023-07-20T02:05:37;14.17;;;9.40;;
7523;SDS011;3803;51.666;7.630;2023-07-20T02:05:58;11.80;;;9.30;;
7523;SDS011;3803;51.666;7.630;2023-07-20T02:06:19;12.68;;;9.65;;
7523;SDS011;3803;51.666;7.630;2023-07-20T02:06:43;13.60;;;9.80;;
7523;SDS011;3803;51.666;7.630;2023-07-20T02:07:05;13.88;;;9.63;;
7523;SDS011;3803;51.666;7.630;2023-07-20T02:07:26;11.75;;;8.82;;
7523;SDS011;3803;51.666;7.630;2023-07-20T02:07:47;10.65;;;8.82;;
7523;SDS011;3803;51.666;7.630;2023-07-20T02:08:13;10.90;;;8.82;;
7523;SDS011;3803;51.666;7.630;2023-07-20T02:08:33;11.70;;;8.90;;
7523;SDS011;3803;51.666;7.630;2023-07-20T02:08:54;12.23;;;8.83;;
7523;SDS011;3803;51.666;7.630;2023-07-20T02:09:15;12.18;;;9.18;;
7523;SDS011;3803;51.666;7.630;2023-07-20T02:09:35;12.13;;;9.55;;
7523;SDS011;3803;51.666;7.630;2023-07-20T02:09:56;12.50;;;9.77;;
7523;SDS011;3803;51.666;7.630;2023-07-20T02:10:16;13.15;;;9.35;;
7523;SDS011;3803;51.666;7.630;2023-07-20T02:10:37;12.73;;;8.70;;
7523;SDS011;3803;51.666;7.630;2023-07-20T02:10:58;12.38;;;8.32;;
7523;SDS011;3803;51.666;7.630;2023-07-20T02:11:19;12.23;;;8.57;;
7523;SDS011;3803;51.666;7.630;2023-07-20T02:11:39;13.43;;;8.93;;
7523;SDS011;3803;51.666;7.630;2023-07-20T02:12:00;13.63;;;9.45;;
7523;SDS011;3803;51.666;7.630;2023-07-20T02:12:21;13.93;;;9.77;;
7523;SDS011;3803;51.666;7.630;2023-07-20T02:12:42;13.50;;;9.90;;
7523;SDS011;3803;51.666;7.630;2023-07-20T02:13:03;13.30;;;9.70;;
7523;SDS011;3803;51.666;7.630;2023-07-20T02:13:23;12.48;;;9.45;;
7523;SDS011;3803;51.666;7.630;2023-07-20T02:13:44;13.80;;;9.40;;
7523;SDS011;3803;51.666;7.630;2023-07-20T02:14:05;13.60;;;9.50;;
7523;SDS011;3803;51.666;7.630;2023-07-20T02:14:26;14.18;;;9.60;;
7523;SDS011;3803;51.666;7.630;2023-07-20T02:14:46;13.23;;;9.77;;
7523;SDS011;3803;51.666;7.630;2023-07-20T02:15:07;13.32;;;9.98;;
7523;SDS011;3803;51.666;7.630;2023-07-20T02:15:29;13.23;;;10.35;;
7523;SDS011;3803;51.666;7.630;2023-07-20T02:15:50;14.67;;;10.20;;
7523;SDS011;3803;51.666;7.630;2023-07-20T02:16:11;14.50;;;9.75;;
7523;SDS011;3803;51.666;7.630;2023-07-20T02:16:31;14.60;;;9.30;;
7523;SDS011;3803;51.666;7.630;2023-07-20T02:16:52;12.77;;;9.18;;
7523;SDS011;3803;51.666;7.630;2023-07-20T02:17:22;12.63;;;9.20;;
7523;SDS011;3803;51.666;7.630;2023-07-20T02:17:43;12.02;;;9.75;;
7523;SDS011;3803;51.666;7.630;2023-07-20T02:18:04;12.00;;;10.13;;
7523;SDS011;3803;51.666;7.630;2023-07-20T02:18:28;12.25;;;9.57;;
7523;SDS011;3803;51.666;7.630;2023-07-20T02:18:49;14.60;;;8.98;;
7523;SDS011;3803;51.666;7.630;2023-07-20T02:19:09;14.73;;;8.90;;
7523;SDS011;3803;51.666;7.630;2023-07-20T02:19:31;13.77;;;9.30;;
7523;SDS011;3803;51.666;7.630;2023-07-20T02:19:54;11.17;;;9.23;;
7523;SDS011;3803;51.666;7.630;2023-07-20T02:20:16;11.82;;;9.25;;
7523;SDS011;3803;51.666;7.630;2023-07-20T02:20:37;12.30;;;9.40;;
7523;SDS011;3803;51.666;7.630;2023-07-20T02:20:58;13.57;;;9.48;;
7523;SDS011;3803;51.666;7.630;2023-07-20T02:21:19;12.68;;;9.50;;
7523;SDS011;3803;51.666;7.630;2023-07-20T02:21:40;12.55;;;9.27;;
7523;SDS011;3803;51.666;7.630;2023-07-20T02:22:01;12.85;;;9.57;;
7523;SDS011;3803;51.666;7.630;2023-07-20T02:22:21;13.80;;;9.85;;
7523;SDS011;3803;51.666;7.630;2023-07-20T02:22:42;14.85;;;10.18;;
7523;SDS011;3803;51.666;7.630;2023-07-20T02:23:03;15.50;;;10.27;;
7523;SDS011;3803;51.666;7.630;2023-07-20T02:23:23;14.27;;;9.80;;
7523;SDS011;3803;51.666;7.630;2023-07-20T02:23:44;12.80;;;9.50;;
7523;SDS011;3803;51.666;7.630;2023-07-20T02:24:05;12.20;;;9.55;;
7523;SDS011;3803;51.666;7.630;2023-07-20T02:24:26;13.15;;;10.00;;
7523;SDS011;3803;51.666;7.630;2023-07-20T02:24:46;13.55;;;10.13;;